createdAt,value
2017-11-11T00:02:24.693Z,28.73
2017-11-11T00:04:52.210Z,17.70
2017-11-11T00:07:19.693Z,18.47
2017-11-11T00:09:47.189Z,15.03
2017-11-11T00:12:14.721Z,18.40
2017-11-11T00:14:42.236Z,13.93
2017-11-11T00:17:09.746Z,9.97
2017-11-11T00:19:38.045Z,16.07
2017-11-11T00:22:06.929Z,11.23
2017-11-11T00:24:35.229Z,15.80
2017-11-11T00:27:02.845Z,18.60
2017-11-11T00:29:30.329Z,21.33
2017-11-11T00:31:58.599Z,14.03
2017-11-11T00:34:26.133Z,13.40
2017-11-11T00:36:53.621Z,27.53
2017-11-11T00:39:21.886Z,16.13
2017-11-11T00:41:50.164Z,9.93
2017-11-11T00:44:17.757Z,18.17
2017-11-11T00:46:45.248Z,14.80
2017-11-11T00:49:12.854Z,13.97
2017-11-11T00:51:40.360Z,25.57
2017-11-11T00:54:07.862Z,10.90
2017-11-11T00:56:35.424Z,17.23
2017-11-11T00:59:02.946Z,14.43
2017-11-11T01:01:31.256Z,13.90
2017-11-11T01:03:58.778Z,9.73
2017-11-11T01:06:26.326Z,12.60
2017-11-11T01:08:53.866Z,15.80
2017-11-11T01:11:21.360Z,13.73
2017-11-11T01:13:50.612Z,21.13
2017-11-11T01:16:18.130Z,14.10
2017-11-11T01:18:46.412Z,15.47
2017-11-11T01:21:13.920Z,13.03
2017-11-11T01:23:41.445Z,17.27
2017-11-11T01:26:08.984Z,17.50
2017-11-11T01:28:37.267Z,21.90
2017-11-11T01:31:04.774Z,18.20
2017-11-11T01:33:32.291Z,17.70
2017-11-11T01:35:59.831Z,15.57
2017-11-11T01:38:27.361Z,19.57
2017-11-11T01:40:54.854Z,19.50
2017-11-11T01:43:22.381Z,13.70
2017-11-11T01:45:51.412Z,22.13
2017-11-11T01:48:18.927Z,13.20
2017-11-11T01:50:46.442Z,14.00
2017-11-11T01:53:13.967Z,12.00
2017-11-11T01:55:41.464Z,14.43
2017-11-11T01:58:08.977Z,20.13
2017-11-11T02:00:36.511Z,20.43
2017-11-11T02:03:04.026Z,13.50
2017-11-11T02:05:31.507Z,14.90
2017-11-11T02:07:59.833Z,17.00
2017-11-11T02:10:27.341Z,13.20
2017-11-11T02:12:54.862Z,16.87
2017-11-11T02:15:22.383Z,15.20
2017-11-11T02:17:50.661Z,12.30
2017-11-11T02:20:19.002Z,18.93
2017-11-11T02:22:47.074Z,18.63
2017-11-11T02:25:14.644Z,14.53
2017-11-11T02:27:42.143Z,12.27
2017-11-11T02:30:09.662Z,21.67
2017-11-11T02:32:37.168Z,12.63
2017-11-11T02:35:04.698Z,19.73
2017-11-11T02:37:32.215Z,12.77
2017-11-11T02:39:59.758Z,13.23
2017-11-11T02:42:28.047Z,15.50
2017-11-11T02:44:55.524Z,16.13
2017-11-11T02:47:23.818Z,12.80
2017-11-11T02:49:52.100Z,11.93
2017-11-11T02:52:19.640Z,15.87
2017-11-11T02:54:47.944Z,18.53
2017-11-11T02:57:15.483Z,17.97
2017-11-11T02:59:43.790Z,16.60
2017-11-11T03:02:11.346Z,14.00
2017-11-11T03:04:38.878Z,15.93
2017-11-11T03:07:07.153Z,14.13
2017-11-11T03:09:35.454Z,11.13
2017-11-11T03:12:02.972Z,9.97
2017-11-11T03:14:31.253Z,11.27
2017-11-11T03:16:59.549Z,19.70
2017-11-11T03:19:27.062Z,13.63
2017-11-11T03:21:54.561Z,11.53
2017-11-11T03:24:22.098Z,13.90
2017-11-11T03:26:50.362Z,8.90
2017-11-11T03:29:18.700Z,15.30
2017-11-11T03:31:46.222Z,10.37
2017-11-11T03:34:13.732Z,18.43
2017-11-11T03:36:41.263Z,16.03
2017-11-11T03:39:08.773Z,21.63
2017-11-11T03:41:37.080Z,16.80
2017-11-11T03:44:04.576Z,16.70
2017-11-11T03:46:32.081Z,16.93
2017-11-11T03:48:59.597Z,13.57
2017-11-11T03:51:27.121Z,17.93
2017-11-11T03:53:54.668Z,16.17
2017-11-11T03:56:22.153Z,10.27
2017-11-11T03:58:49.787Z,10.40
2017-11-11T04:01:17.281Z,26.13
2017-11-11T04:03:44.814Z,7.70
2017-11-11T04:06:12.365Z,13.47
2017-11-11T04:08:39.889Z,14.40
2017-11-11T04:11:07.405Z,17.07
2017-11-11T04:13:34.929Z,12.30
2017-11-11T04:16:02.421Z,11.73
2017-11-11T04:18:29.962Z,21.67
2017-11-11T04:20:57.466Z,13.70
2017-11-11T04:23:25.752Z,18.60
2017-11-11T04:25:53.287Z,14.13
2017-11-11T04:28:20.830Z,13.23
2017-11-11T04:30:48.329Z,9.10
2017-11-11T04:33:15.870Z,15.50
2017-11-11T04:35:44.182Z,7.73
2017-11-11T04:38:11.682Z,7.57
2017-11-11T04:40:39.981Z,18.20
2017-11-11T04:43:08.301Z,10.47
2017-11-11T04:45:36.577Z,11.03
2017-11-11T04:48:04.852Z,15.70
2017-11-11T04:50:32.394Z,11.37
2017-11-11T04:52:59.887Z,12.10
2017-11-11T04:55:28.124Z,17.03
2017-11-11T04:57:55.649Z,9.93
2017-11-11T05:00:23.967Z,12.20
2017-11-11T05:02:51.463Z,9.90
2017-11-11T05:05:18.954Z,13.60
2017-11-11T05:07:46.489Z,11.53
2017-11-11T05:10:14.752Z,6.57
2017-11-11T05:12:42.242Z,12.03
2017-11-11T05:15:09.800Z,11.50
2017-11-11T05:17:37.307Z,8.23
2017-11-11T05:20:04.822Z,9.53
2017-11-11T05:22:32.304Z,8.90
2017-11-11T05:24:59.829Z,21.10
2017-11-11T05:27:27.330Z,12.17
2017-11-11T05:29:54.878Z,11.80
2017-11-11T05:32:22.392Z,17.13
2017-11-11T05:34:49.890Z,13.50
2017-11-11T05:37:18.500Z,6.20
2017-11-11T05:39:45.999Z,6.73
2017-11-11T05:42:13.488Z,6.30
2017-11-11T05:44:41.006Z,7.07
2017-11-11T05:47:08.522Z,10.57
2017-11-11T05:49:36.062Z,12.03
2017-11-11T05:52:03.535Z,20.83
2017-11-11T05:54:31.853Z,9.93
2017-11-11T05:56:59.349Z,5.13
2017-11-11T05:59:26.879Z,8.50
2017-11-11T06:01:54.389Z,10.47
2017-11-11T06:04:21.906Z,9.17
2017-11-11T06:06:49.425Z,11.03
2017-11-11T06:09:17.690Z,9.83
2017-11-11T06:11:46.095Z,10.53
2017-11-11T06:14:14.495Z,10.03
2017-11-11T06:16:42.960Z,8.50
2017-11-11T06:19:10.458Z,10.57
2017-11-11T06:21:38.812Z,11.27
2017-11-11T06:24:07.781Z,12.73
2017-11-11T06:26:35.323Z,13.10
2017-11-11T06:29:03.279Z,13.67
2017-11-11T06:31:31.880Z,10.07
2017-11-11T06:33:59.383Z,7.20
2017-11-11T06:36:26.872Z,8.13
2017-11-11T06:38:55.241Z,7.93
2017-11-11T06:41:22.795Z,15.20
2017-11-11T06:43:51.123Z,10.93
2017-11-11T06:46:18.646Z,12.03
2017-11-11T06:48:47.745Z,9.60
2017-11-11T06:51:16.030Z,16.40
2017-11-11T06:53:43.572Z,11.90
2017-11-11T06:56:11.824Z,14.63
2017-11-11T06:58:39.317Z,9.37
2017-11-11T07:01:06.849Z,8.47
2017-11-11T07:03:36.858Z,11.40
2017-11-11T07:06:05.158Z,17.30
2017-11-11T07:08:39.107Z,13.40
2017-11-11T07:11:06.590Z,8.33
2017-11-11T07:13:34.170Z,21.37
2017-11-11T07:16:02.469Z,9.63
2017-11-11T07:18:29.998Z,14.03
2017-11-11T07:21:03.549Z,6.90
2017-11-11T07:23:31.146Z,10.20
2017-11-11T07:25:59.445Z,11.90
2017-11-11T07:28:26.991Z,10.90
2017-11-11T07:30:55.284Z,13.30
2017-11-11T07:33:22.785Z,10.70
2017-11-11T07:35:50.327Z,7.97
2017-11-11T07:38:17.855Z,7.27
2017-11-11T07:40:45.631Z,12.97
2017-11-11T07:43:13.170Z,7.20
2017-11-11T07:45:41.449Z,15.20
2017-11-11T07:48:08.962Z,12.30
2017-11-11T07:50:36.513Z,15.97
2017-11-11T07:53:04.079Z,13.40
2017-11-11T07:55:31.594Z,8.90
2017-11-11T07:57:59.874Z,9.87
2017-11-11T08:00:27.429Z,14.23
2017-11-11T08:02:54.938Z,16.23
2017-11-11T08:05:23.282Z,17.40
2017-11-11T08:07:50.772Z,12.53
2017-11-11T08:10:27.982Z,17.97
2017-11-11T08:13:06.744Z,11.40
2017-11-11T08:15:34.304Z,10.50
2017-11-11T08:18:01.815Z,10.53
2017-11-11T08:20:29.360Z,15.73
2017-11-11T08:22:57.834Z,10.17
2017-11-11T08:25:26.125Z,10.83
2017-11-11T08:27:54.478Z,16.00
2017-11-11T08:30:22.032Z,15.47
2017-11-11T08:32:49.553Z,13.00
2017-11-11T08:35:23.540Z,6.13
2017-11-11T08:37:51.122Z,10.57
2017-11-11T08:40:18.614Z,6.13
2017-11-11T08:42:46.918Z,11.90
2017-11-11T08:45:14.438Z,20.00
2017-11-11T08:47:42.746Z,19.80
2017-11-11T08:50:11.047Z,13.77
2017-11-11T08:52:38.548Z,28.23
2017-11-11T08:55:06.839Z,32.70
2017-11-11T08:57:34.362Z,15.80
2017-11-11T09:00:01.889Z,7.27
2017-11-11T09:02:29.451Z,19.10
2017-11-11T09:04:56.943Z,19.43
2017-11-11T09:07:24.459Z,12.07
2017-11-11T09:09:51.975Z,11.60
2017-11-11T09:12:19.535Z,11.83
2017-11-11T09:14:47.854Z,8.53
2017-11-11T09:17:15.735Z,15.23
2017-11-11T09:19:43.296Z,10.03
2017-11-11T09:22:10.855Z,10.80
2017-11-11T09:24:38.412Z,5.30
2017-11-11T09:27:05.967Z,12.77
2017-11-11T09:29:33.478Z,13.80
2017-11-11T09:32:01.028Z,7.03
2017-11-11T09:34:35.799Z,12.20
2017-11-11T09:37:03.288Z,5.90
2017-11-11T09:39:36.667Z,9.60
2017-11-11T09:42:04.185Z,11.80
2017-11-11T09:44:43.525Z,5.50
2017-11-11T09:50:06.638Z,5.07
2017-11-11T09:52:34.229Z,10.17
2017-11-11T09:55:02.551Z,7.90
2017-11-11T09:57:31.380Z,6.10
2017-11-11T10:02:53.587Z,4.90
2017-11-11T10:08:15.026Z,7.10
2017-11-11T10:10:42.603Z,4.30
2017-11-11T10:13:17.230Z,6.80
2017-11-11T10:15:44.830Z,6.60
2017-11-11T10:18:12.413Z,8.40
2017-11-11T10:20:39.929Z,3.83
2017-11-11T10:23:08.220Z,6.07
2017-11-11T10:25:40.641Z,6.13
2017-11-11T10:51:37.846Z,8.17
2017-11-11T11:00:01.937Z,8.13
2017-11-11T11:02:29.470Z,5.53
2017-11-11T11:04:57.154Z,5.10
2017-11-11T11:07:24.666Z,16.60
2017-11-11T11:09:52.289Z,9.73
2017-11-11T11:12:19.805Z,7.90
2017-11-11T11:14:47.344Z,5.10
2017-11-11T11:17:14.846Z,8.53
2017-11-11T11:19:42.352Z,8.60
2017-11-11T11:22:09.884Z,8.80
2017-11-11T11:24:37.379Z,7.67
2017-11-11T11:27:10.634Z,7.77
2017-11-11T11:29:39.355Z,13.10
2017-11-11T11:32:06.904Z,7.43
2017-11-11T11:34:34.453Z,9.53
2017-11-11T11:37:02.750Z,7.63
2017-11-11T11:39:31.013Z,8.10
2017-11-11T11:41:58.551Z,7.40
2017-11-11T11:44:26.072Z,7.90
2017-11-11T11:46:53.583Z,4.70
2017-11-11T11:49:21.120Z,11.60
2017-11-11T11:51:48.605Z,5.30
2017-11-11T11:54:16.114Z,5.73
2017-11-11T11:56:43.650Z,9.23
2017-11-11T11:59:11.182Z,9.23
2017-11-11T12:01:38.696Z,6.23
2017-11-11T12:04:06.989Z,7.50
2017-11-11T12:06:34.518Z,11.57
2017-11-11T12:09:02.028Z,7.57
2017-11-11T12:11:29.670Z,5.60
2017-11-11T12:13:57.162Z,5.60
2017-11-11T12:16:25.437Z,7.10
2017-11-11T12:18:52.951Z,7.40
2017-11-11T12:21:20.490Z,54.97
2017-11-11T12:23:48.791Z,51.50
2017-11-11T12:26:17.052Z,10.33
2017-11-11T12:28:44.589Z,13.27
2017-11-11T12:31:12.126Z,7.10
2017-11-11T12:33:40.434Z,26.03
2017-11-11T12:36:07.933Z,12.27
2017-11-11T12:38:35.482Z,62.97
2017-11-11T12:41:03.006Z,53.63
2017-11-11T12:43:30.495Z,24.63
2017-11-11T12:45:58.039Z,30.70
2017-11-11T12:48:25.550Z,10.23
2017-11-11T12:50:53.054Z,36.27
2017-11-11T12:53:20.595Z,18.00
2017-11-11T12:55:48.088Z,7.10
2017-11-11T12:58:15.610Z,8.53
2017-11-11T13:00:43.138Z,7.73
2017-11-11T13:03:10.623Z,7.70
2017-11-11T13:05:38.146Z,9.67
2017-11-11T13:08:05.667Z,8.10
2017-11-11T13:10:33.192Z,9.63
2017-11-11T13:13:00.681Z,10.53
2017-11-11T13:15:28.167Z,9.77
2017-11-11T13:17:55.695Z,12.93
2017-11-11T13:20:23.211Z,11.27
2017-11-11T13:22:50.735Z,10.20
2017-11-11T13:25:19.018Z,11.70
2017-11-11T13:27:46.534Z,12.90
2017-11-11T13:30:14.826Z,10.97
2017-11-11T13:32:42.315Z,9.87
2017-11-11T13:35:09.829Z,13.47
2017-11-11T13:37:37.336Z,11.07
2017-11-11T13:40:05.649Z,15.40
2017-11-11T13:42:33.954Z,14.17
2017-11-11T13:45:01.455Z,11.97
2017-11-11T13:47:28.961Z,15.70
2017-11-11T13:49:56.495Z,13.73
2017-11-11T13:52:24.016Z,11.97
2017-11-11T13:54:51.513Z,14.60
2017-11-11T13:57:19.810Z,12.37
2017-11-11T13:59:48.092Z,13.47
2017-11-11T14:02:16.349Z,12.20
2017-11-11T14:04:43.886Z,10.57
2017-11-11T14:07:11.387Z,14.90
2017-11-11T14:09:38.881Z,13.87
2017-11-11T14:12:06.431Z,10.77
2017-11-11T14:14:33.937Z,11.57
2017-11-11T14:17:02.211Z,14.17
2017-11-11T14:19:29.751Z,12.47
2017-11-11T14:21:57.262Z,12.03
2017-11-11T14:24:24.762Z,11.50
2017-11-11T14:26:52.291Z,13.03
2017-11-11T14:29:19.801Z,15.27
2017-11-11T14:31:47.297Z,13.03
2017-11-11T14:34:14.831Z,16.20
2017-11-11T14:36:43.097Z,14.77
2017-11-11T14:39:10.630Z,12.50
2017-11-11T14:41:38.126Z,12.57
2017-11-11T14:44:05.668Z,14.53
2017-11-11T14:46:33.162Z,14.37
2017-11-11T14:49:00.700Z,10.83
2017-11-11T14:51:28.190Z,13.63
2017-11-11T14:53:55.687Z,13.90
2017-11-11T14:56:23.214Z,12.80
2017-11-11T14:58:50.713Z,11.70
2017-11-11T15:01:18.257Z,11.90
2017-11-11T15:03:45.777Z,11.40
2017-11-11T15:06:13.292Z,10.67
2017-11-11T15:08:40.837Z,11.40
2017-11-11T15:11:09.112Z,11.97
2017-11-11T15:13:36.636Z,12.40
2017-11-11T15:16:04.162Z,13.00
2017-11-11T15:18:32.431Z,12.73
2017-11-11T15:20:59.947Z,13.63
2017-11-11T15:23:27.476Z,12.60
2017-11-11T15:25:54.987Z,12.30
2017-11-11T15:28:22.522Z,14.10
2017-11-11T15:30:50.039Z,13.90
2017-11-11T15:33:17.559Z,14.50
2017-11-11T15:35:45.073Z,16.20
2017-11-11T15:38:12.594Z,13.73
2017-11-11T15:40:40.137Z,16.97
2017-11-11T15:43:07.675Z,17.90
2017-11-11T15:45:35.951Z,16.10
2017-11-11T15:48:05.140Z,17.57
2017-11-11T15:50:32.639Z,15.50
2017-11-11T15:53:00.922Z,16.83
2017-11-11T15:55:29.217Z,15.50
2017-11-11T15:57:57.480Z,16.10
2017-11-11T16:00:24.998Z,16.20
2017-11-11T16:02:52.624Z,18.60
2017-11-11T16:05:20.162Z,16.83
2017-11-11T16:07:47.675Z,16.40
2017-11-11T16:10:15.173Z,18.20
2017-11-11T16:12:43.495Z,14.17
2017-11-11T16:15:11.001Z,15.07
2017-11-11T16:17:38.526Z,17.83
2017-11-11T16:20:06.088Z,21.30
2017-11-11T16:22:33.656Z,17.30
2017-11-11T16:25:01.206Z,20.40
2017-11-11T16:27:29.498Z,18.87
2017-11-11T16:29:57.770Z,22.07
2017-11-11T16:32:25.327Z,23.40
2017-11-11T16:34:52.826Z,21.17
2017-11-11T16:37:20.355Z,21.90
2017-11-11T16:39:47.913Z,21.70
2017-11-11T16:42:15.412Z,28.80
2017-11-11T16:44:42.922Z,25.80
2017-11-11T16:47:11.221Z,26.67
2017-11-11T16:49:39.534Z,35.53
2017-11-11T16:52:07.816Z,23.03
2017-11-11T16:54:35.329Z,22.20
2017-11-11T16:57:02.849Z,26.60
2017-11-11T16:59:30.386Z,20.60
2017-11-11T17:01:57.886Z,34.13
2017-11-11T17:04:25.421Z,27.23
2017-11-11T17:06:52.927Z,31.10
2017-11-11T17:09:20.445Z,32.87
2017-11-11T17:11:47.968Z,28.93
2017-11-11T17:14:16.229Z,116.40
2017-11-11T17:16:43.769Z,82.03
2017-11-11T17:19:11.293Z,155.93
2017-11-11T17:21:39.595Z,56.57
2017-11-11T17:24:07.093Z,46.63
2017-11-11T17:26:34.629Z,81.17
2017-11-11T17:29:02.889Z,44.27
2017-11-11T17:31:30.389Z,58.37
2017-11-11T17:33:57.918Z,44.67
2017-11-11T17:36:25.455Z,37.90
2017-11-11T17:38:52.954Z,33.80
2017-11-11T17:41:20.463Z,36.83
2017-11-11T17:43:48.753Z,37.07
2017-11-11T17:46:17.054Z,41.00
2017-11-11T17:48:45.316Z,35.20
2017-11-11T17:51:12.813Z,40.80
2017-11-11T17:53:41.145Z,43.47
2017-11-11T17:56:08.695Z,42.47
2017-11-11T17:58:36.195Z,37.93
2017-11-11T18:01:03.989Z,35.03
2017-11-11T18:03:31.554Z,40.20
2017-11-11T18:05:59.085Z,34.23
2017-11-11T18:08:26.603Z,38.70
2017-11-11T18:10:54.102Z,40.83
2017-11-11T18:13:22.393Z,33.83
2017-11-11T18:15:50.769Z,37.37
2017-11-11T18:18:18.296Z,41.93
2017-11-11T18:20:45.787Z,37.37
2017-11-11T18:23:13.333Z,39.23
2017-11-11T18:25:40.865Z,35.63
2017-11-11T18:28:09.182Z,37.07
2017-11-11T18:30:36.688Z,40.40
2017-11-11T18:33:04.203Z,37.13
2017-11-11T18:35:31.733Z,36.80
2017-11-11T18:38:00.210Z,43.97
2017-11-11T18:40:29.342Z,38.20
2017-11-11T18:42:56.860Z,40.03
2017-11-11T18:45:24.356Z,35.73
2017-11-11T18:47:51.882Z,38.20
2017-11-11T18:50:20.150Z,48.97
2017-11-11T18:52:47.651Z,40.87
2017-11-11T18:55:15.948Z,40.50
2017-11-11T18:57:43.443Z,42.07
2017-11-11T19:00:10.964Z,42.33
2017-11-11T19:02:38.462Z,43.03
2017-11-11T19:05:06.011Z,45.53
2017-11-11T19:07:34.277Z,45.50
2017-11-11T19:10:01.779Z,44.33
2017-11-11T19:12:30.069Z,44.30
2017-11-11T19:14:57.574Z,51.20
2017-11-11T19:17:25.122Z,43.30
2017-11-11T19:19:54.893Z,41.13
2017-11-11T19:22:22.582Z,40.70
2017-11-11T19:24:50.091Z,50.77
2017-11-11T19:27:17.677Z,45.87
2017-11-11T19:29:45.195Z,47.87
2017-11-11T19:32:12.804Z,38.30
2017-11-11T19:34:41.115Z,39.80
2017-11-11T19:37:08.649Z,40.43
2017-11-11T19:39:36.975Z,44.07
2017-11-11T19:42:04.514Z,40.80
2017-11-11T19:44:32.801Z,47.30
2017-11-11T19:47:01.115Z,39.57
2017-11-11T19:49:29.245Z,40.57
2017-11-11T19:51:56.827Z,42.03
2017-11-11T19:54:24.337Z,49.00
2017-11-11T19:56:51.873Z,50.17
2017-11-11T19:59:19.374Z,50.77
2017-11-11T20:01:47.640Z,48.20
2017-11-11T20:04:15.163Z,49.27
2017-11-11T20:06:42.670Z,50.40
2017-11-11T20:09:10.228Z,44.07
2017-11-11T20:11:37.754Z,45.60
2017-11-11T20:14:06.304Z,50.43
2017-11-11T20:16:33.827Z,46.87
2017-11-11T20:19:01.327Z,47.60
2017-11-11T20:21:28.862Z,42.33
2017-11-11T20:23:56.357Z,43.67
2017-11-11T20:26:23.890Z,45.10
2017-11-11T20:28:51.387Z,54.03
2017-11-11T20:31:18.914Z,43.47
2017-11-11T20:33:46.460Z,51.50
2017-11-11T20:36:13.966Z,45.57
2017-11-11T20:38:42.290Z,46.60
2017-11-11T20:41:09.788Z,41.43
2017-11-11T20:43:37.341Z,45.23
2017-11-11T20:46:04.834Z,52.47
2017-11-11T20:48:32.327Z,51.10
2017-11-11T20:50:59.850Z,43.53
2017-11-11T20:53:27.352Z,46.00
2017-11-11T20:55:54.878Z,43.03
2017-11-11T20:58:22.370Z,46.47
2017-11-11T21:00:49.909Z,36.97
2017-11-11T21:03:17.412Z,37.50
2017-11-11T21:05:45.679Z,44.77
2017-11-11T21:08:13.998Z,48.27
2017-11-11T21:10:41.508Z,45.03
2017-11-11T21:13:09.015Z,38.40
2017-11-11T21:15:36.554Z,44.63
2017-11-11T21:18:04.063Z,37.70
2017-11-11T21:20:31.595Z,42.20
2017-11-11T21:22:59.119Z,43.07
2017-11-11T21:25:27.394Z,40.60
2017-11-11T21:27:54.905Z,36.20
2017-11-11T21:30:22.406Z,44.40
2017-11-11T21:32:49.954Z,39.20
2017-11-11T21:35:18.247Z,36.40
2017-11-11T21:37:45.755Z,38.67
2017-11-11T21:40:13.287Z,40.23
2017-11-11T21:42:40.803Z,34.30
2017-11-11T21:45:08.302Z,36.87
2017-11-11T21:47:35.827Z,36.77
2017-11-11T21:50:03.335Z,39.47
2017-11-11T21:52:30.870Z,28.37
2017-11-11T21:54:58.383Z,40.00
2017-11-11T21:57:26.647Z,39.83
2017-11-11T21:59:54.189Z,38.43
2017-11-11T22:02:21.716Z,42.57
2017-11-11T22:04:49.231Z,47.67
2017-11-11T22:07:17.550Z,53.63
2017-11-11T22:09:45.045Z,37.60
2017-11-11T22:12:13.343Z,43.47
2017-11-11T22:14:40.886Z,38.97
2017-11-11T22:17:09.193Z,38.33
2017-11-11T22:19:36.697Z,44.50
2017-11-11T22:22:04.251Z,45.33
2017-11-11T22:24:31.759Z,39.33
2017-11-11T22:26:59.255Z,35.37
2017-11-11T22:29:26.782Z,33.27
2017-11-11T22:31:54.292Z,37.37
2017-11-11T22:34:21.818Z,32.67
2017-11-11T22:36:49.306Z,36.73
2017-11-11T22:39:16.805Z,36.13
2017-11-11T22:41:44.350Z,36.97
2017-11-11T22:44:11.860Z,33.00
2017-11-11T22:46:39.371Z,36.60
2017-11-11T22:49:06.883Z,39.00
2017-11-11T22:51:34.403Z,41.10
2017-11-11T22:54:01.909Z,37.47
2017-11-11T22:56:29.402Z,37.90
2017-11-11T22:58:56.935Z,38.67
2017-11-11T23:01:25.192Z,40.07
2017-11-11T23:03:52.715Z,38.20
2017-11-11T23:06:20.232Z,41.23
2017-11-11T23:08:48.523Z,35.67
2017-11-11T23:11:16.012Z,44.00
2017-11-11T23:13:43.544Z,31.90
2017-11-11T23:16:11.089Z,37.83
2017-11-11T23:18:38.587Z,39.63
2017-11-11T23:21:06.098Z,42.97
2017-11-11T23:23:33.602Z,35.43
2017-11-11T23:26:01.119Z,35.77
2017-11-11T23:28:28.633Z,36.03
2017-11-11T23:30:56.163Z,37.50
2017-11-11T23:33:23.670Z,32.67
2017-11-11T23:35:51.963Z,30.67
2017-11-11T23:38:19.483Z,32.40
2017-11-11T23:40:46.977Z,47.40
2017-11-11T23:43:14.515Z,42.80
2017-11-11T23:45:43.555Z,32.80
2017-11-11T23:48:11.085Z,39.23
2017-11-11T23:50:38.584Z,37.53
2017-11-11T23:53:06.111Z,40.00
2017-11-11T23:55:33.650Z,43.10
2017-11-11T23:58:01.153Z,41.97
